sensor_id;sensor_type;location;lat;lon;timestamp;temperature;humidity
15231;DHT22;32569;51.762;8.564;2023-02-19T00:01:43;9.50;99.90
15231;DHT22;32569;51.762;8.564;2023-02-19T00:04:12;9.50;99.90
15231;DHT22;32569;51.762;8.564;2023-02-19T00:06:46;9.50;99.90
15231;DHT22;32569;51.762;8.564;2023-02-19T00:09:17;9.60;99.90
15231;DHT22;32569;51.762;8.564;2023-02-19T00:11:44;9.60;99.90
15231;DHT22;32569;51.762;8.564;2023-02-19T00:14:15;9.60;99.90
15231;DHT22;32569;51.762;8.564;2023-02-19T00:16:46;9.60;99.90
15231;DHT22;32569;51.762;8.564;2023-02-19T00:19:15;9.60;99.90
15231;DHT22;32569;51.762;8.564;2023-02-19T00:21:50;9.60;99.90
15231;DHT22;32569;51.762;8.564;2023-02-19T00:24:17;9.50;99.90
15231;DHT22;32569;51.762;8.564;2023-02-19T00:26:44;9.50;99.90
15231;DHT22;32569;51.762;8.564;2023-02-19T00:29:12;9.60;99.90
15231;DHT22;32569;51.762;8.564;2023-02-19T00:31:47;9.60;99.90
15231;DHT22;32569;51.762;8.564;2023-02-19T00:34:13;9.60;99.90
15231;DHT22;32569;51.762;8.564;2023-02-19T00:36:43;9.60;99.90
15231;DHT22;32569;51.762;8.564;2023-02-19T00:39:12;9.60;99.90
15231;DHT22;32569;51.762;8.564;2023-02-19T00:41:49;9.60;99.90
15231;DHT22;32569;51.762;8.564;2023-02-19T00:44:16;9.60;99.90
15231;DHT22;32569;51.762;8.564;2023-02-19T00:46:52;9.60;99.90
15231;DHT22;32569;51.762;8.564;2023-02-19T00:49:20;9.60;99.90
15231;DHT22;32569;51.762;8.564;2023-02-19T00:51:48;9.60;99.90
15231;DHT22;32569;51.762;8.564;2023-02-19T00:54:15;9.60;99.90
15231;DHT22;32569;51.762;8.564;2023-02-19T00:56:42;9.60;99.90
15231;DHT22;32569;51.762;8.564;2023-02-19T00:59:15;9.60;99.90
15231;DHT22;32569;51.762;8.564;2023-02-19T01:01:44;9.60;99.90
15231;DHT22;32569;51.762;8.564;2023-02-19T01:04:12;9.60;99.90
15231;DHT22;32569;51.762;8.564;2023-02-19T01:06:40;9.60;99.90
15231;DHT22;32569;51.762;8.564;2023-02-19T01:09:10;9.60;99.90
15231;DHT22;32569;51.762;8.564;2023-02-19T01:11:43;9.60;99.90
15231;DHT22;32569;51.762;8.564;2023-02-19T01:14:09;9.60;99.90
15231;DHT22;32569;51.762;8.564;2023-02-19T01:16:39;9.60;99.90
15231;DHT22;32569;51.762;8.564;2023-02-19T01:19:06;9.60;99.90
15231;DHT22;32569;51.762;8.564;2023-02-19T01:21:39;9.70;99.90
15231;DHT22;32569;51.762;8.564;2023-02-19T01:24:09;9.70;99.90
15231;DHT22;32569;51.762;8.564;2023-02-19T01:26:38;9.60;99.90
15231;DHT22;32569;51.762;8.564;2023-02-19T01:29:08;9.60;99.90
15231;DHT22;32569;51.762;8.564;2023-02-19T01:31:35;9.70;99.90
15231;DHT22;32569;51.762;8.564;2023-02-19T01:34:09;9.60;99.90
15231;DHT22;32569;51.762;8.564;2023-02-19T01:36:40;9.60;99.90
15231;DHT22;32569;51.762;8.564;2023-02-19T01:39:07;9.60;99.90
15231;DHT22;32569;51.762;8.564;2023-02-19T01:41:37;9.60;99.90
15231;DHT22;32569;51.762;8.564;2023-02-19T01:47:33;9.60;99.90
15231;DHT22;32569;51.762;8.564;2023-02-19T01:50:03;9.60;99.90
15231;DHT22;32569;51.762;8.564;2023-02-19T01:52:34;9.60;99.90
15231;DHT22;32569;51.762;8.564;2023-02-19T01:55:12;9.60;99.90
15231;DHT22;32569;51.762;8.564;2023-02-19T01:57:42;9.60;99.90
15231;DHT22;32569;51.762;8.564;2023-02-19T02:00:13;9.60;99.90
15231;DHT22;32569;51.762;8.564;2023-02-19T02:02:42;9.50;99.90
15231;DHT22;32569;51.762;8.564;2023-02-19T02:05:16;9.50;99.90
15231;DHT22;32569;51.762;8.564;2023-02-19T02:07:46;9.60;99.90
15231;DHT22;32569;51.762;8.564;2023-02-19T02:10:30;9.60;99.90
15231;DHT22;32569;51.762;8.564;2023-02-19T02:12:57;9.60;99.90
15231;DHT22;32569;51.762;8.564;2023-02-19T02:15:27;9.60;99.90
15231;DHT22;32569;51.762;8.564;2023-02-19T02:18:14;9.60;99.90
15231;DHT22;32569;51.762;8.564;2023-02-19T02:21:05;9.60;99.90
15231;DHT22;32569;51.762;8.564;2023-02-19T02:23:56;9.60;99.90
15231;DHT22;32569;51.762;8.564;2023-02-19T02:26:39;9.50;99.90
15231;DHT22;32569;51.762;8.564;2023-02-19T02:32:11;9.60;99.90
15231;DHT22;32569;51.762;8.564;2023-02-19T02:34:47;9.70;99.90
15231;DHT22;32569;51.762;8.564;2023-02-19T02:37:17;9.60;99.90
15231;DHT22;32569;51.762;8.564;2023-02-19T02:39:44;9.60;99.90
15231;DHT22;32569;51.762;8.564;2023-02-19T02:42:15;9.60;99.90
15231;DHT22;32569;51.762;8.564;2023-02-19T02:44:53;9.60;99.90
15231;DHT22;32569;51.762;8.564;2023-02-19T02:47:47;9.60;99.90
15231;DHT22;32569;51.762;8.564;2023-02-19T02:50:19;9.70;99.90
15231;DHT22;32569;51.762;8.564;2023-02-19T02:52:50;9.60;99.90
15231;DHT22;32569;51.762;8.564;2023-02-19T02:55:43;9.60;99.90
15231;DHT22;32569;51.762;8.564;2023-02-19T02:58:11;9.60;99.90
15231;DHT22;32569;51.762;8.564;2023-02-19T03:00:42;9.60;99.90
15231;DHT22;32569;51.762;8.564;2023-02-19T03:03:53;9.50;99.90
15231;DHT22;32569;51.762;8.564;2023-02-19T03:06:25;9.60;99.90
15231;DHT22;32569;51.762;8.564;2023-02-19T03:08:57;9.60;99.90
15231;DHT22;32569;51.762;8.564;2023-02-19T03:11:31;9.50;99.90
15231;DHT22;32569;51.762;8.564;2023-02-19T03:14:22;9.60;99.90
15231;DHT22;32569;51.762;8.564;2023-02-19T03:17:12;9.50;99.90
15231;DHT22;32569;51.762;8.564;2023-02-19T03:20:04;9.50;99.90
15231;DHT22;32569;51.762;8.564;2023-02-19T03:22:35;9.50;99.90
15231;DHT22;32569;51.762;8.564;2023-02-19T03:25:11;9.50;99.90
15231;DHT22;32569;51.762;8.564;2023-02-19T03:27:59;9.50;99.90
15231;DHT22;32569;51.762;8.564;2023-02-19T03:30:30;9.50;99.90
15231;DHT22;32569;51.762;8.564;2023-02-19T03:32:59;9.50;99.90
15231;DHT22;32569;51.762;8.564;2023-02-19T03:35:31;9.50;99.90
15231;DHT22;32569;51.762;8.564;2023-02-19T03:38:05;9.50;99.90
15231;DHT22;32569;51.762;8.564;2023-02-19T03:40:42;9.50;99.90
15231;DHT22;32569;51.762;8.564;2023-02-19T03:43:14;9.50;99.90
15231;DHT22;32569;51.762;8.564;2023-02-19T03:45:46;9.40;99.90
15231;DHT22;32569;51.762;8.564;2023-02-19T03:48:32;9.50;99.90
15231;DHT22;32569;51.762;8.564;2023-02-19T03:51:07;9.40;99.90
15231;DHT22;32569;51.762;8.564;2023-02-19T03:53:46;9.40;99.90
15231;DHT22;32569;51.762;8.564;2023-02-19T03:56:27;9.40;99.90
15231;DHT22;32569;51.762;8.564;2023-02-19T03:58:57;9.40;99.90
15231;DHT22;32569;51.762;8.564;2023-02-19T04:01:47;9.50;99.90
15231;DHT22;32569;51.762;8.564;2023-02-19T04:04:24;9.40;99.90
15231;DHT22;32569;51.762;8.564;2023-02-19T04:06:54;9.40;99.90
15231;DHT22;32569;51.762;8.564;2023-02-19T04:09:24;9.30;99.90
15231;DHT22;32569;51.762;8.564;2023-02-19T04:11:55;9.30;99.90
15231;DHT22;32569;51.762;8.564;2023-02-19T04:14:25;9.20;99.90
15231;DHT22;32569;51.762;8.564;2023-02-19T04:16:57;9.20;99.90
15231;DHT22;32569;51.762;8.564;2023-02-19T04:19:25;9.20;99.90
15231;DHT22;32569;51.762;8.564;2023-02-19T04:21:55;9.10;99.90
15231;DHT22;32569;51.762;8.564;2023-02-19T04:24:26;9.00;99.90
15231;DHT22;32569;51.762;8.564;2023-02-19T04:26:54;8.90;99.90
15231;DHT22;32569;51.762;8.564;2023-02-19T04:29:21;9.00;99.90
15231;DHT22;32569;51.762;8.564;2023-02-19T04:31:48;9.00;99.90
15231;DHT22;32569;51.762;8.564;2023-02-19T04:34:15;9.00;99.90
15231;DHT22;32569;51.762;8.564;2023-02-19T04:36:41;9.00;99.90
15231;DHT22;32569;51.762;8.564;2023-02-19T04:39:12;9.10;99.90
15231;DHT22;32569;51.762;8.564;2023-02-19T04:41:45;9.10;99.90
15231;DHT22;32569;51.762;8.564;2023-02-19T04:44:14;9.10;99.90
15231;DHT22;32569;51.762;8.564;2023-02-19T04:46:41;9.10;99.90
15231;DHT22;32569;51.762;8.564;2023-02-19T04:49:17;9.10;99.90
15231;DHT22;32569;51.762;8.564;2023-02-19T04:51:46;9.10;99.90
15231;DHT22;32569;51.762;8.564;2023-02-19T04:54:17;9.10;99.90
15231;DHT22;32569;51.762;8.564;2023-02-19T04:56:44;9.10;99.90
15231;DHT22;32569;51.762;8.564;2023-02-19T04:59:16;9.10;99.90
15231;DHT22;32569;51.762;8.564;2023-02-19T05:01:46;9.10;99.90
15231;DHT22;32569;51.762;8.564;2023-02-19T05:04:12;9.00;99.90
15231;DHT22;32569;51.762;8.564;2023-02-19T05:06:39;9.10;99.90
15231;DHT22;32569;51.762;8.564;2023-02-19T05:09:17;9.10;99.90
15231;DHT22;32569;51.762;8.564;2023-02-19T05:11:47;9.00;99.90
15231;DHT22;32569;51.762;8.564;2023-02-19T05:14:14;9.10;99.90
15231;DHT22;32569;51.762;8.564;2023-02-19T05:16:44;9.10;99.90
15231;DHT22;32569;51.762;8.564;2023-02-19T05:19:11;9.00;99.90
15231;DHT22;32569;51.762;8.564;2023-02-19T05:21:38;9.00;99.90
15231;DHT22;32569;51.762;8.564;2023-02-19T05:24:07;9.00;99.90
15231;DHT22;32569;51.762;8.564;2023-02-19T05:26:35;9.00;99.90
15231;DHT22;32569;51.762;8.564;2023-02-19T05:29:02;9.00;99.90
15231;DHT22;32569;51.762;8.564;2023-02-19T05:31:29;9.00;99.90
15231;DHT22;32569;51.762;8.564;2023-02-19T05:33:58;9.00;99.90
15231;DHT22;32569;51.762;8.564;2023-02-19T05:36:28;9.00;99.90
15231;DHT22;32569;51.762;8.564;2023-02-19T05:38:55;9.00;99.90
15231;DHT22;32569;51.762;8.564;2023-02-19T05:41:24;9.00;99.90
15231;DHT22;32569;51.762;8.564;2023-02-19T05:43:52;9.00;99.90
15231;DHT22;32569;51.762;8.564;2023-02-19T05:46:27;9.00;99.90
15231;DHT22;32569;51.762;8.564;2023-02-19T05:49:00;9.00;99.90
15231;DHT22;32569;51.762;8.564;2023-02-19T05:51:30;9.00;99.90
15231;DHT22;32569;51.762;8.564;2023-02-19T05:53:59;9.00;99.90
15231;DHT22;32569;51.762;8.564;2023-02-19T05:56:30;9.10;99.90
15231;DHT22;32569;51.762;8.564;2023-02-19T05:59:00;9.00;99.90
15231;DHT22;32569;51.762;8.564;2023-02-19T06:01:29;8.90;99.90
15231;DHT22;32569;51.762;8.564;2023-02-19T06:03:58;8.90;99.90
15231;DHT22;32569;51.762;8.564;2023-02-19T06:06:30;9.00;99.90
15231;DHT22;32569;51.762;8.564;2023-02-19T06:08:57;9.00;99.90
15231;DHT22;32569;51.762;8.564;2023-02-19T06:11:24;8.90;99.90
15231;DHT22;32569;51.762;8.564;2023-02-19T06:13:51;8.90;99.90
15231;DHT22;32569;51.762;8.564;2023-02-19T06:16:19;8.90;99.90
15231;DHT22;32569;51.762;8.564;2023-02-19T06:18:49;8.90;99.90
15231;DHT22;32569;51.762;8.564;2023-02-19T06:21:17;8.90;99.90
15231;DHT22;32569;51.762;8.564;2023-02-19T06:23:44;8.90;99.90
15231;DHT22;32569;51.762;8.564;2023-02-19T06:26:17;8.90;99.90
15231;DHT22;32569;51.762;8.564;2023-02-19T06:28:44;9.00;99.90
15231;DHT22;32569;51.762;8.564;2023-02-19T06:31:18;9.00;99.90
15231;DHT22;32569;51.762;8.564;2023-02-19T06:33:46;9.00;99.90
15231;DHT22;32569;51.762;8.564;2023-02-19T06:36:16;9.00;99.90
15231;DHT22;32569;51.762;8.564;2023-02-19T06:38:43;9.00;99.90
15231;DHT22;32569;51.762;8.564;2023-02-19T06:41:13;9.00;99.90
15231;DHT22;32569;51.762;8.564;2023-02-19T06:43:48;9.00;99.90
15231;DHT22;32569;51.762;8.564;2023-02-19T06:46:15;9.00;99.90
15231;DHT22;32569;51.762;8.564;2023-02-19T06:48:44;9.00;99.90
15231;DHT22;32569;51.762;8.564;2023-02-19T06:51:11;9.00;99.90
15231;DHT22;32569;51.762;8.564;2023-02-19T06:53:38;9.00;99.90
15231;DHT22;32569;51.762;8.564;2023-02-19T06:56:29;9.00;99.90
15231;DHT22;32569;51.762;8.564;2023-02-19T06:58:58;8.90;99.90
15231;DHT22;32569;51.762;8.564;2023-02-19T07:01:32;9.00;99.90
15231;DHT22;32569;51.762;8.564;2023-02-19T07:04:00;9.00;99.90
15231;DHT22;32569;51.762;8.564;2023-02-19T07:06:34;9.00;99.90
15231;DHT22;32569;51.762;8.564;2023-02-19T07:09:02;8.90;99.90
15231;DHT22;32569;51.762;8.564;2023-02-19T07:11:32;9.00;99.90
15231;DHT22;32569;51.762;8.564;2023-02-19T07:14:00;9.00;99.90
15231;DHT22;32569;51.762;8.564;2023-02-19T07:16:28;9.00;99.90
15231;DHT22;32569;51.762;8.564;2023-02-19T07:18:57;9.00;99.90
15231;DHT22;32569;51.762;8.564;2023-02-19T07:21:26;9.00;99.90
15231;DHT22;32569;51.762;8.564;2023-02-19T07:23:53;9.00;99.90
15231;DHT22;32569;51.762;8.564;2023-02-19T07:26:20;9.00;99.90
15231;DHT22;32569;51.762;8.564;2023-02-19T07:28:49;8.90;99.90
15231;DHT22;32569;51.762;8.564;2023-02-19T07:31:17;9.00;99.90
15231;DHT22;32569;51.762;8.564;2023-02-19T07:33:50;9.00;99.90
15231;DHT22;32569;51.762;8.564;2023-02-19T07:36:20;9.00;99.90
15231;DHT22;32569;51.762;8.564;2023-02-19T07:39:05;9.10;99.90
15231;DHT22;32569;51.762;8.564;2023-02-19T07:41:32;9.10;99.90
15231;DHT22;32569;51.762;8.564;2023-02-19T07:44:04;9.10;99.90
15231;DHT22;32569;51.762;8.564;2023-02-19T07:46:34;9.20;99.90
15231;DHT22;32569;51.762;8.564;2023-02-19T07:51:48;9.20;99.90
15231;DHT22;32569;51.762;8.564;2023-02-19T07:54:16;9.20;99.90
15231;DHT22;32569;51.762;8.564;2023-02-19T07:56:42;9.30;99.90
15231;DHT22;32569;51.762;8.564;2023-02-19T07:59:16;9.20;99.90
15231;DHT22;32569;51.762;8.564;2023-02-19T08:01:43;8.70;99.90
15231;DHT22;32569;51.762;8.564;2023-02-19T08:04:28;8.50;99.90
15231;DHT22;32569;51.762;8.564;2023-02-19T08:06:54;7.80;99.90
15231;DHT22;32569;51.762;8.564;2023-02-19T08:09:22;7.50;99.90
15231;DHT22;32569;51.762;8.564;2023-02-19T08:11:52;7.30;99.90
15231;DHT22;32569;51.762;8.564;2023-02-19T08:14:36;7.20;99.90
15231;DHT22;32569;51.762;8.564;2023-02-19T08:17:08;7.20;99.90
15231;DHT22;32569;51.762;8.564;2023-02-19T08:19:35;7.10;99.90
15231;DHT22;32569;51.762;8.564;2023-02-19T08:22:14;7.10;99.90
15231;DHT22;32569;51.762;8.564;2023-02-19T08:24:45;7.10;99.90
15231;DHT22;32569;51.762;8.564;2023-02-19T08:27:14;7.20;99.90
15231;DHT22;32569;51.762;8.564;2023-02-19T08:29:44;7.20;99.90
15231;DHT22;32569;51.762;8.564;2023-02-19T08:32:10;7.00;99.90
15231;DHT22;32569;51.762;8.564;2023-02-19T08:34:37;7.00;99.90
15231;DHT22;32569;51.762;8.564;2023-02-19T08:37:12;6.90;99.90
15231;DHT22;32569;51.762;8.564;2023-02-19T08:39:44;6.80;99.90
15231;DHT22;32569;51.762;8.564;2023-02-19T08:42:14;6.90;99.90
15231;DHT22;32569;51.762;8.564;2023-02-19T08:44:40;7.00;99.90
15231;DHT22;32569;51.762;8.564;2023-02-19T08:47:07;7.00;99.90
15231;DHT22;32569;51.762;8.564;2023-02-19T08:49:33;7.00;99.90
15231;DHT22;32569;51.762;8.564;2023-02-19T08:52:03;7.00;99.90
15231;DHT22;32569;51.762;8.564;2023-02-19T08:54:33;7.00;99.90
15231;DHT22;32569;51.762;8.564;2023-02-19T08:57:01;7.10;99.90
15231;DHT22;32569;51.762;8.564;2023-02-19T08:59:29;7.10;99.90
15231;DHT22;32569;51.762;8.564;2023-02-19T09:01:57;7.20;99.90
15231;DHT22;32569;51.762;8.564;2023-02-19T09:04:25;7.10;99.90
15231;DHT22;32569;51.762;8.564;2023-02-19T09:06:55;7.10;99.90
15231;DHT22;32569;51.762;8.564;2023-02-19T09:09:21;7.10;99.90
15231;DHT22;32569;51.762;8.564;2023-02-19T09:11:54;7.00;99.90
15231;DHT22;32569;51.762;8.564;2023-02-19T09:14:23;7.10;99.90
15231;DHT22;32569;51.762;8.564;2023-02-19T09:16:56;7.10;99.90
15231;DHT22;32569;51.762;8.564;2023-02-19T09:19:28;7.00;99.90
15231;DHT22;32569;51.762;8.564;2023-02-19T09:21:55;6.90;99.90
15231;DHT22;32569;51.762;8.564;2023-02-19T09:24:22;6.90;99.90
15231;DHT22;32569;51.762;8.564;2023-02-19T09:26:53;6.90;99.90
15231;DHT22;32569;51.762;8.564;2023-02-19T09:29:20;6.80;99.90
15231;DHT22;32569;51.762;8.564;2023-02-19T09:31:48;6.60;99.90
15231;DHT22;32569;51.762;8.564;2023-02-19T09:34:14;6.60;99.90
15231;DHT22;32569;51.762;8.564;2023-02-19T09:36:41;6.50;99.90
15231;DHT22;32569;51.762;8.564;2023-02-19T09:39:08;6.40;99.90
15231;DHT22;32569;51.762;8.564;2023-02-19T09:41:42;6.40;99.90
15231;DHT22;32569;51.762;8.564;2023-02-19T09:44:12;6.50;99.90
15231;DHT22;32569;51.762;8.564;2023-02-19T09:46:43;6.50;99.90
15231;DHT22;32569;51.762;8.564;2023-02-19T09:49:14;6.60;99.90
15231;DHT22;32569;51.762;8.564;2023-02-19T09:51:45;6.70;99.90
15231;DHT22;32569;51.762;8.564;2023-02-19T09:54:21;6.70;99.90
15231;DHT22;32569;51.762;8.564;2023-02-19T09:56:50;6.60;99.90
15231;DHT22;32569;51.762;8.564;2023-02-19T09:59:22;6.70;99.90
15231;DHT22;32569;51.762;8.564;2023-02-19T10:01:54;6.70;99.90
15231;DHT22;32569;51.762;8.564;2023-02-19T10:04:24;6.80;99.90
15231;DHT22;32569;51.762;8.564;2023-02-19T10:06:51;6.80;99.90
15231;DHT22;32569;51.762;8.564;2023-02-19T10:09:24;6.80;99.90
15231;DHT22;32569;51.762;8.564;2023-02-19T10:11:54;6.90;99.90
15231;DHT22;32569;51.762;8.564;2023-02-19T10:14:25;7.10;99.90
15231;DHT22;32569;51.762;8.564;2023-02-19T10:16:58;7.20;99.90
15231;DHT22;32569;51.762;8.564;2023-02-19T10:19:27;7.20;99.90
15231;DHT22;32569;51.762;8.564;2023-02-19T10:21:57;7.20;99.90
15231;DHT22;32569;51.762;8.564;2023-02-19T10:24:28;7.30;99.90
15231;DHT22;32569;51.762;8.564;2023-02-19T10:26:56;7.20;99.90
15231;DHT22;32569;51.762;8.564;2023-02-19T10:29:22;7.30;99.90
15231;DHT22;32569;51.762;8.564;2023-02-19T10:32:10;7.20;99.90
15231;DHT22;32569;51.762;8.564;2023-02-19T10:34:39;7.20;99.90
15231;DHT22;32569;51.762;8.564;2023-02-19T10:37:09;7.20;99.90
15231;DHT22;32569;51.762;8.564;2023-02-19T10:39:41;7.30;99.90
15231;DHT22;32569;51.762;8.564;2023-02-19T10:42:22;7.30;99.90
15231;DHT22;32569;51.762;8.564;2023-02-19T10:44:57;7.30;99.90
15231;DHT22;32569;51.762;8.564;2023-02-19T10:47:31;7.30;99.90
15231;DHT22;32569;51.762;8.564;2023-02-19T10:49:59;7.50;99.90
15231;DHT22;32569;51.762;8.564;2023-02-19T10:52:28;7.30;99.90
15231;DHT22;32569;51.762;8.564;2023-02-19T10:55:15;7.20;99.90
15231;DHT22;32569;51.762;8.564;2023-02-19T10:57:41;7.30;99.90
15231;DHT22;32569;51.762;8.564;2023-02-19T11:00:22;7.30;99.90
15231;DHT22;32569;51.762;8.564;2023-02-19T11:03:18;7.30;99.90
15231;DHT22;32569;51.762;8.564;2023-02-19T11:05:59;7.30;99.90
15231;DHT22;32569;51.762;8.564;2023-02-19T11:08:27;7.30;99.90
15231;DHT22;32569;51.762;8.564;2023-02-19T11:10:56;7.40;99.90
15231;DHT22;32569;51.762;8.564;2023-02-19T11:13:27;7.60;99.90
15231;DHT22;32569;51.762;8.564;2023-02-19T11:15:55;7.70;99.90
15231;DHT22;32569;51.762;8.564;2023-02-19T11:18:24;7.80;99.90
15231;DHT22;32569;51.762;8.564;2023-02-19T11:20:54;7.60;99.90
15231;DHT22;32569;51.762;8.564;2023-02-19T11:23:25;7.50;99.90
15231;DHT22;32569;51.762;8.564;2023-02-19T11:25:58;7.50;99.90
15231;DHT22;32569;51.762;8.564;2023-02-19T11:28:31;7.50;99.90
15231;DHT22;32569;51.762;8.564;2023-02-19T11:31:21;7.40;99.90
15231;DHT22;32569;51.762;8.564;2023-02-19T11:33:53;7.40;99.90
15231;DHT22;32569;51.762;8.564;2023-02-19T11:36:29;7.40;99.90
15231;DHT22;32569;51.762;8.564;2023-02-19T11:38:57;7.50;99.90
15231;DHT22;32569;51.762;8.564;2023-02-19T11:41:38;7.50;99.90
15231;DHT22;32569;51.762;8.564;2023-02-19T11:44:25;7.40;99.90
15231;DHT22;32569;51.762;8.564;2023-02-19T11:47:07;7.30;99.90
15231;DHT22;32569;51.762;8.564;2023-02-19T11:49:45;7.10;99.90
15231;DHT22;32569;51.762;8.564;2023-02-19T11:52:22;7.20;99.90
15231;DHT22;32569;51.762;8.564;2023-02-19T11:55:07;7.30;99.90
15231;DHT22;32569;51.762;8.564;2023-02-19T11:57:41;7.60;99.90
15231;DHT22;32569;51.762;8.564;2023-02-19T12:00:23;7.80;99.90
15231;DHT22;32569;51.762;8.564;2023-02-19T12:03:21;7.70;99.90
15231;DHT22;32569;51.762;8.564;2023-02-19T12:06:12;7.50;99.90
15231;DHT22;32569;51.762;8.564;2023-02-19T12:09:23;7.40;99.90
15231;DHT22;32569;51.762;8.564;2023-02-19T12:12:13;7.40;99.90
15231;DHT22;32569;51.762;8.564;2023-02-19T12:14:51;7.50;99.90
15231;DHT22;32569;51.762;8.564;2023-02-19T12:17:32;7.50;99.90
15231;DHT22;32569;51.762;8.564;2023-02-19T12:20:13;7.60;99.90
15231;DHT22;32569;51.762;8.564;2023-02-19T12:22:48;7.80;99.90
15231;DHT22;32569;51.762;8.564;2023-02-19T12:28:32;7.70;99.90
15231;DHT22;32569;51.762;8.564;2023-02-19T12:31:39;7.80;99.90
15231;DHT22;32569;51.762;8.564;2023-02-19T12:34:38;7.90;99.90
15231;DHT22;32569;51.762;8.564;2023-02-19T12:37:26;7.90;99.90
15231;DHT22;32569;51.762;8.564;2023-02-19T12:40:02;8.00;99.90
15231;DHT22;32569;51.762;8.564;2023-02-19T12:42:48;7.90;99.90
15231;DHT22;32569;51.762;8.564;2023-02-19T12:45:18;8.10;99.90
15231;DHT22;32569;51.762;8.564;2023-02-19T12:47:57;8.20;99.90
15231;DHT22;32569;51.762;8.564;2023-02-19T12:50:26;8.20;99.90
15231;DHT22;32569;51.762;8.564;2023-02-19T12:52:58;7.90;99.90
15231;DHT22;32569;51.762;8.564;2023-02-19T12:55:28;8.00;99.90
15231;DHT22;32569;51.762;8.564;2023-02-19T12:57:58;7.90;99.90
15231;DHT22;32569;51.762;8.564;2023-02-19T13:00:34;8.00;99.90
15231;DHT22;32569;51.762;8.564;2023-02-19T13:03:09;8.10;99.90
15231;DHT22;32569;51.762;8.564;2023-02-19T13:05:43;8.00;99.90
15231;DHT22;32569;51.762;8.564;2023-02-19T13:08:15;8.00;99.90
15231;DHT22;32569;51.762;8.564;2023-02-19T13:10:47;8.10;99.90
15231;DHT22;32569;51.762;8.564;2023-02-19T13:13:20;8.10;99.90
15231;DHT22;32569;51.762;8.564;2023-02-19T13:15:54;8.30;99.90
15231;DHT22;32569;51.762;8.564;2023-02-19T13:18:25;8.20;99.90
15231;DHT22;32569;51.762;8.564;2023-02-19T13:20:56;8.10;99.90
15231;DHT22;32569;51.762;8.564;2023-02-19T13:23:25;8.20;99.90
15231;DHT22;32569;51.762;8.564;2023-02-19T13:26:34;8.20;99.90
15231;DHT22;32569;51.762;8.564;2023-02-19T13:29:28;8.30;99.90
15231;DHT22;32569;51.762;8.564;2023-02-19T13:35:20;8.40;99.90
15231;DHT22;32569;51.762;8.564;2023-02-19T13:37:50;8.60;99.90
15231;DHT22;32569;51.762;8.564;2023-02-19T13:40:24;8.60;99.90
15231;DHT22;32569;51.762;8.564;2023-02-19T13:42:59;8.50;99.90
15231;DHT22;32569;51.762;8.564;2023-02-19T13:45:32;8.50;99.90
15231;DHT22;32569;51.762;8.564;2023-02-19T13:48:14;8.50;99.90
15231;DHT22;32569;51.762;8.564;2023-02-19T13:50:47;8.40;99.90
15231;DHT22;32569;51.762;8.564;2023-02-19T13:53:48;8.30;99.90
15231;DHT22;32569;51.762;8.564;2023-02-19T13:56:38;8.30;99.90
15231;DHT22;32569;51.762;8.564;2023-02-19T13:59:24;8.30;99.90
15231;DHT22;32569;51.762;8.564;2023-02-19T14:04:57;8.50;99.90
15231;DHT22;32569;51.762;8.564;2023-02-19T14:07:48;8.50;99.90
15231;DHT22;32569;51.762;8.564;2023-02-19T14:13:53;8.30;99.90
15231;DHT22;32569;51.762;8.564;2023-02-19T14:22:50;8.50;99.90
15231;DHT22;32569;51.762;8.564;2023-02-19T14:25:44;8.50;99.90
15231;DHT22;32569;51.762;8.564;2023-02-19T14:28:33;8.50;99.90
15231;DHT22;32569;51.762;8.564;2023-02-19T14:31:26;8.50;99.90
15231;DHT22;32569;51.762;8.564;2023-02-19T14:33:57;8.70;99.90
15231;DHT22;32569;51.762;8.564;2023-02-19T14:36:41;8.60;99.90
15231;DHT22;32569;51.762;8.564;2023-02-19T14:39:17;8.60;99.90
15231;DHT22;32569;51.762;8.564;2023-02-19T14:41:50;8.60;99.90
15231;DHT22;32569;51.762;8.564;2023-02-19T14:44:22;8.60;99.90
15231;DHT22;32569;51.762;8.564;2023-02-19T14:46:59;8.60;99.90
15231;DHT22;32569;51.762;8.564;2023-02-19T14:49:31;8.50;99.90
15231;DHT22;32569;51.762;8.564;2023-02-19T14:52:03;8.30;99.90
15231;DHT22;32569;51.762;8.564;2023-02-19T14:54:47;8.20;99.90
15231;DHT22;32569;51.762;8.564;2023-02-19T14:57:21;8.00;99.90
15231;DHT22;32569;51.762;8.564;2023-02-19T14:59:56;8.20;99.90
15231;DHT22;32569;51.762;8.564;2023-02-19T15:02:24;8.20;99.90
15231;DHT22;32569;51.762;8.564;2023-02-19T15:04:51;8.20;99.90
15231;DHT22;32569;51.762;8.564;2023-02-19T15:07:21;8.20;99.90
15231;DHT22;32569;51.762;8.564;2023-02-19T15:09:52;8.10;99.90
15231;DHT22;32569;51.762;8.564;2023-02-19T15:12:24;8.20;99.90
15231;DHT22;32569;51.762;8.564;2023-02-19T15:14:56;8.30;99.90
15231;DHT22;32569;51.762;8.564;2023-02-19T15:17:27;8.30;99.90
15231;DHT22;32569;51.762;8.564;2023-02-19T15:19:54;8.30;99.90
15231;DHT22;32569;51.762;8.564;2023-02-19T15:22:27;8.30;99.90
15231;DHT22;32569;51.762;8.564;2023-02-19T15:24:59;8.30;99.90
15231;DHT22;32569;51.762;8.564;2023-02-19T15:27:28;8.30;99.90
15231;DHT22;32569;51.762;8.564;2023-02-19T15:30:01;8.30;99.90
15231;DHT22;32569;51.762;8.564;2023-02-19T15:32:28;8.30;99.90
15231;DHT22;32569;51.762;8.564;2023-02-19T15:35:02;8.40;99.90
15231;DHT22;32569;51.762;8.564;2023-02-19T15:37:30;8.30;99.90
15231;DHT22;32569;51.762;8.564;2023-02-19T15:40:05;8.40;99.90
15231;DHT22;32569;51.762;8.564;2023-02-19T15:42:34;8.30;99.90
15231;DHT22;32569;51.762;8.564;2023-02-19T15:45:04;8.30;99.90
15231;DHT22;32569;51.762;8.564;2023-02-19T15:47:35;8.20;99.90
15231;DHT22;32569;51.762;8.564;2023-02-19T15:50:07;8.20;99.90
15231;DHT22;32569;51.762;8.564;2023-02-19T15:52:40;8.20;99.90
15231;DHT22;32569;51.762;8.564;2023-02-19T15:55:23;8.20;99.90
15231;DHT22;32569;51.762;8.564;2023-02-19T15:58:00;8.10;99.90
15231;DHT22;32569;51.762;8.564;2023-02-19T16:00:33;8.20;99.90
15231;DHT22;32569;51.762;8.564;2023-02-19T16:03:01;8.20;99.90
15231;DHT22;32569;51.762;8.564;2023-02-19T16:05:31;8.20;99.90
15231;DHT22;32569;51.762;8.564;2023-02-19T16:08:05;8.20;99.90
15231;DHT22;32569;51.762;8.564;2023-02-19T16:10:33;8.20;99.90
15231;DHT22;32569;51.762;8.564;2023-02-19T16:13:05;8.20;99.90
15231;DHT22;32569;51.762;8.564;2023-02-19T16:15:32;8.20;99.90
15231;DHT22;32569;51.762;8.564;2023-02-19T16:18:02;8.00;99.90
15231;DHT22;32569;51.762;8.564;2023-02-19T16:20:30;8.00;99.90
15231;DHT22;32569;51.762;8.564;2023-02-19T16:23:03;8.00;99.90
15231;DHT22;32569;51.762;8.564;2023-02-19T16:25:35;8.00;99.90
15231;DHT22;32569;51.762;8.564;2023-02-19T16:28:10;7.90;99.90
15231;DHT22;32569;51.762;8.564;2023-02-19T16:30:37;7.80;99.90
15231;DHT22;32569;51.762;8.564;2023-02-19T16:33:33;7.80;99.90
15231;DHT22;32569;51.762;8.564;2023-02-19T16:36:18;7.90;99.90
15231;DHT22;32569;51.762;8.564;2023-02-19T16:39:17;7.80;99.90
15231;DHT22;32569;51.762;8.564;2023-02-19T16:42:14;7.80;99.90
15231;DHT22;32569;51.762;8.564;2023-02-19T16:44:42;7.70;99.90
15231;DHT22;32569;51.762;8.564;2023-02-19T16:47:30;7.80;99.90
15231;DHT22;32569;51.762;8.564;2023-02-19T16:50:03;7.80;99.90
15231;DHT22;32569;51.762;8.564;2023-02-19T16:52:35;7.80;99.90